| time (UTC) | temp F | wind direction | speed MPH | gust MPH | rain 1hr in | rain 24hr in | rain mn in | humidity % | barometer mb |
| 20260507174016 | 64 | 45 | 2.0 | 4.0 | 0.00 | 0.21 | 0.00 | 74 | 1014.3 |
| 20260507173016 | 64 | 90 | 1.0 | 3.0 | 0.00 | 0.21 | 0.00 | 75 | 1014.3 |
| 20260507172016 | 64 | 68 | 3.0 | 6.0 | 0.00 | 0.21 | 0.00 | 74 | 1014.3 |
| 20260507171056 | 65 | 68 | 1.0 | 3.0 | 0.00 | 0.21 | 0.00 | 75 | 1014.3 |
| 20260507170016 | 66 | 0.0 | 1.0 | 0.00 | 0.21 | 0.00 | 74 | 1014.3 | |
| 20260507165016 | 66 | 68 | 4.0 | 7.0 | 0.00 | 0.21 | 0.00 | 71 | 1014.2 |
| 20260507164016 | 67 | 68 | 2.0 | 3.0 | 0.00 | 0.21 | 0.00 | 69 | 1014.1 |
| 20260507163056 | 69 | 68 | 3.0 | 6.0 | 0.00 | 0.21 | 0.00 | 68 | 1014.0 |
| 20260507162016 | 69 | 0 | 3.0 | 5.0 | 0.00 | 0.21 | 0.00 | 70 | 1014.0 |
| 20260507161056 | 70 | 0.0 | 1.0 | 0.00 | 0.21 | 0.00 | 68 | 1013.9 | |
| 20260507160016 | 70 | 90 | 1.0 | 2.0 | 0.00 | 0.21 | 0.00 | 67 | 1013.8 |
| 20260507155016 | 70 | 90 | 1.0 | 2.0 | 0.00 | 0.21 | 0.00 | 67 | 1013.7 |
| 20260507154034 | 69 | 90 | 1.0 | 2.0 | 0.00 | 0.21 | 0.00 | 66 | 1013.6 |
| 20260507153016 | 69 | 68 | 3.0 | 5.0 | 0.00 | 0.22 | 0.00 | 66 | 1013.5 |
| 20260507152016 | 68 | 68 | 3.0 | 8.0 | 0.00 | 0.24 | 0.00 | 68 | 1013.4 |
| 20260507151016 | 70 | 45 | 3.0 | 6.0 | 0.00 | 0.31 | 0.00 | 65 | 1013.5 |
| 20260507150016 | 69 | 0.0 | 0.0 | 0.00 | 0.43 | 0.00 | 65 | 1013.4 | |
| 20260507145016 | 69 | 203 | 1.0 | 3.0 | 0.00 | 0.51 | 0.00 | 63 | 1012.8 |
| 20260507144016 | 69 | 0.0 | 1.0 | 0.00 | 0.61 | 0.00 | 59 | 1012.3 | |
| 20260507143016 | 69 | 315 | 1.0 | 3.0 | 0.00 | 0.71 | 0.00 | 61 | 1012.4 |
| 20260507142016 | 70 | 293 | 3.0 | 8.0 | 0.00 | 0.72 | 0.00 | 59 | 1012.2 |
| 20260507141016 | 71 | 225 | 4.0 | 9.0 | 0.00 | 0.72 | 0.00 | 62 | 1012.4 |
| 20260507140016 | 71 | 293 | 1.0 | 3.0 | 0.00 | 0.72 | 0.00 | 64 | 1012.4 |
| 20260507135016 | 71 | 0.0 | 1.0 | 0.00 | 0.72 | 0.00 | 65 | 1012.4 | |
| 20260507134056 | 72 | 225 | 1.0 | 3.0 | 0.00 | 0.72 | 0.00 | 64 | 1012.4 |
| 20260507133056 | 73 | 248 | 1.0 | 3.0 | 0.00 | 0.72 | 0.00 | 61 | 1012.4 |
| 20260507132016 | 73 | 158 | 2.0 | 4.0 | 0.00 | 0.72 | 0.00 | 59 | 1012.5 |
| 20260507131016 | 72 | 270 | 2.0 | 3.0 | 0.00 | 0.73 | 0.00 | 58 | 1012.6 |
| 20260507130016 | 72 | 135 | 1.0 | 1.0 | 0.00 | 0.73 | 0.00 | 60 | 1012.7 |
| 20260507125016 | 72 | 293 | 1.0 | 3.0 | 0.00 | 0.73 | 0.00 | 59 | 1012.6 |
| 20260507124016 | 72 | 0.0 | 0.0 | 0.00 | 0.73 | 0.00 | 59 | 1012.6 | |
| 20260507123056 | 72 | 0.0 | 1.0 | 0.00 | 0.73 | 0.00 | 59 | 1012.6 | |
| 20260507122056 | 72 | 68 | 2.0 | 5.0 | 0.00 | 0.73 | 0.00 | 58 | 1012.6 |
| 20260507121016 | 73 | 45 | 2.0 | 6.0 | 0.00 | 0.73 | 0.00 | 58 | 1012.8 |
| 20260507120016 | 74 | 270 | 2.0 | 4.0 | 0.00 | 0.73 | 0.00 | 56 | 1012.8 |
| 20260507115016 | 74 | 315 | 2.0 | 4.0 | 0.00 | 0.73 | 0.00 | 52 | 1012.9 |
| 20260507114016 | 75 | 270 | 1.0 | 4.0 | 0.00 | 0.74 | 0.00 | 57 | 1013.0 |
| 20260507113016 | 75 | 0.0 | 1.0 | 0.00 | 0.75 | 0.00 | 58 | 1012.9 | |
| 20260507112015 | 74 | 0.0 | 4.0 | 0.00 | 0.75 | 0.00 | 55 | 1013.0 | |
| 20260507111016 | 73 | 203 | 1.0 | 4.0 | 0.00 | 0.75 | 0.00 | 58 | 1013.0 |
| 20260507110016 | 73 | 248 | 1.0 | 2.0 | 0.00 | 0.76 | 0.00 | 58 | 1013.1 |
| 20260507105016 | 74 | 0.0 | 0.0 | 0.00 | 0.80 | 0.00 | 58 | 1013.2 | |
| 20260507104016 | 75 | 0.0 | 1.0 | 0.00 | 0.80 | 0.00 | 58 | 1013.3 | |
| 20260507103015 | 72 | 0.0 | 1.0 | 0.00 | 0.81 | 0.00 | 61 | 1013.3 | |
| 20260507102056 | 73 | 225 | 1.0 | 2.0 | 0.00 | 0.82 | 0.00 | 59 | 1013.5 |
| 20260507101016 | 72 | 0.0 | 2.0 | 0.00 | 0.82 | 0.00 | 64 | 1013.4 | |
| 20260507100016 | 72 | 90 | 1.0 | 2.0 | 0.00 | 0.82 | 0.00 | 66 | 1013.5 |
| 20260507095015 | 73 | 68 | 2.0 | 2.0 | 0.00 | 0.82 | 0.00 | 64 | 1013.6 |
| 20260507094016 | 72 | 0.0 | 3.0 | 0.00 | 0.82 | 0.00 | 64 | 1013.5 | |
| 20260507093055 | 71 | 90 | 1.0 | 2.0 | 0.00 | 0.82 | 0.00 | 69 | 1013.4 |
| 20260507092016 | 70 | 0.0 | 2.0 | 0.00 | 0.82 | 0.00 | 73 | 1013.4 | |
| 20260507091016 | 69 | 0.0 | 1.0 | 0.00 | 0.82 | 0.00 | 72 | 1013.4 | |
| 20260507090056 | 69 | 225 | 1.0 | 2.0 | 0.00 | 0.82 | 0.00 | 73 | 1013.5 |
| 20260507085015 | 69 | 68 | 1.0 | 2.0 | 0.00 | 0.82 | 0.00 | 74 | 1013.4 |
| 20260507084015 | 68 | 68 | 2.0 | 4.0 | 0.00 | 0.82 | 0.00 | 75 | 1013.4 |
| 20260507083015 | 67 | 0.0 | 0.0 | 0.00 | 0.82 | 0.00 | 76 | 1013.4 | |
| 20260507082015 | 66 | 45 | 1.0 | 3.0 | 0.00 | 0.82 | 0.00 | 76 | 1013.4 |
| 20260507081015 | 66 | 0.0 | 1.0 | 0.00 | 0.82 | 0.00 | 80 | 1013.3 | |
| 20260507080016 | 66 | 0.0 | 2.0 | 0.00 | 0.82 | 0.00 | 79 | 1013.4 | |
| 20260507075015 | 66 | 0.0 | 1.0 | 0.00 | 0.83 | 0.00 | 81 | 1013.2 | |
| 20260507074056 | 66 | 0 | 1.0 | 2.0 | 0.00 | 0.86 | 0.00 | 80 | 1013.3 |
| 20260507073016 | 66 | 68 | 1.0 | 2.0 | 0.00 | 0.88 | 0.00 | 81 | 1013.2 |
| 20260507072015 | 65 | 68 | 2.0 | 5.0 | 0.00 | 0.88 | 0.00 | 82 | 1013.2 |
| 20260507071015 | 65 | 0.0 | 1.0 | 0.00 | 0.89 | 0.00 | 84 | 1013.2 | |
| 20260507070015 | 64 | 68 | 2.0 | 6.0 | 0.00 | 0.90 | 0.00 | 84 | 1013.1 |
| 20260507065016 | 63 | 0.0 | 2.0 | 0.00 | 0.90 | 0.00 | 87 | 1013.1 | |
| 20260507064016 | 63 | 68 | 1.0 | 4.0 | 0.00 | 0.90 | 0.00 | 87 | 1013.0 |
| 20260507063016 | 62 | 68 | 3.0 | 6.0 | 0.00 | 0.90 | 0.00 | 88 | 1013.0 |
| 20260507062016 | 62 | 68 | 4.0 | 6.0 | 0.00 | 0.90 | 0.00 | 89 | 1013.0 |
| 20260507061016 | 62 | 0.0 | 1.0 | 0.00 | 0.90 | 0.00 | 89 | 1012.9 | |
| 20260507060016 | 62 | 68 | 2.0 | 3.0 | 0.00 | 0.90 | 0.00 | 90 | 1012.8 |
| 20260507055056 | 61 | 68 | 1.0 | 3.0 | 0.00 | 0.90 | 0.00 | 91 | 1012.6 |
| 20260507054015 | 61 | 45 | 1.0 | 3.0 | 0.00 | 0.90 | 0.00 | 95 | 1012.4 |
| 20260507053056 | 59 | 23 | 2.0 | 3.0 | 0.00 | 0.90 | 0.00 | 97 | 1012.3 |
| 20260507052015 | 58 | 0.0 | 2.0 | 0.00 | 0.90 | 0.00 | 98 | 1012.2 | |
| 20260507051015 | 57 | 23 | 1.0 | 2.0 | 0.00 | 0.90 | 0.00 | 99 | 1012.3 |
| 20260507050015 | 56 | 0.0 | 0.0 | 0.00 | 0.90 | 0.00 | 98 | 1012.2 | |
| 20260507045015 | 56 | 0.0 | 0.0 | 0.00 | 0.90 | 0.00 | 99 | 1012.1 | |
| 20260507044015 | 56 | 0.0 | 0.0 | 0.00 | 0.90 | 0.00 | 98 | 1012.0 | |
| 20260507043015 | 55 | 0.0 | 0.0 | 0.00 | 0.90 | 0.00 | 98 | 1011.9 | |
| 20260507042055 | 55 | 0.0 | 0.0 | 0.00 | 0.90 | 0.00 | 98 | 1011.8 | |
| 20260507041015 | 56 | 0.0 | 0.0 | 0.00 | 0.90 | 0.00 | 98 | 1011.5 | |
| 20260507040015 | 56 | 0.0 | 0.0 | 0.00 | 0.90 | 0.00 | 98 | 1011.7 | |
| 20260507035015 | 56 | 0.0 | 1.0 | 0.00 | 0.90 | 0.00 | 98 | 1011.6 | |
| 20260507034034 | 56 | 0.0 | 0.0 | 0.00 | 0.90 | 0.00 | 98 | 1011.7 | |
| 20260507033015 | 57 | 0.0 | 0.0 | 0.00 | 0.90 | 0.00 | 98 | 1011.6 | |
| 20260507032015 | 57 | 0.0 | 0.0 | 0.00 | 0.90 | 0.00 | 98 | 1011.7 | |
| 20260507031055 | 57 | 0.0 | 0.0 | 0.00 | 0.90 | 0.00 | 98 | 1011.7 | |
| 20260507030015 | 58 | 0.0 | 0.0 | 0.00 | 0.90 | 0.00 | 98 | 1011.7 | |
| 20260507025015 | 58 | 0.0 | 0.0 | 0.00 | 0.90 | 0.00 | 98 | 1011.6 | |
| 20260507024015 | 58 | 0.0 | 0.0 | 0.00 | 0.90 | 0.00 | 98 | 1011.6 | |
| 20260507023015 | 58 | 0.0 | 1.0 | 0.00 | 0.90 | 0.00 | 98 | 1011.6 | |
| 20260507022015 | 58 | 0.0 | 1.0 | 0.00 | 0.90 | 0.00 | 98 | 1011.5 | |
| 20260507021015 | 58 | 0.0 | 1.0 | 0.00 | 0.90 | 0.00 | 98 | 1011.5 | |
| 20260507020015 | 58 | 0.0 | 1.0 | 0.00 | 0.90 | 0.00 | 98 | 1011.4 | |
| 20260507015015 | 58 | 0.0 | 1.0 | 0.00 | 0.90 | 0.00 | 98 | 1011.5 | |
| 20260507014015 | 58 | 0.0 | 1.0 | 0.00 | 0.90 | 0.00 | 98 | 1011.5 | |
| 20260507013055 | 58 | 0.0 | 1.0 | 0.00 | 0.90 | 0.00 | 98 | 1011.5 | |
| 20260507012015 | 58 | 0.0 | 1.0 | 0.00 | 0.90 | 0.00 | 98 | 1011.5 | |
| 20260507011015 | 59 | 0.0 | 1.0 | 0.00 | 0.90 | 0.00 | 98 | 1011.5 | |
| 20260507010015 | 59 | 0.0 | 1.0 | 0.00 | 0.90 | 0.00 | 98 | 1011.5 | |
| 20260507005015 | 59 | 0.0 | 1.0 | 0.00 | 0.90 | 0.00 | 98 | 1011.5 | |
| 20260507004017 | 59 | 0.0 | 0.0 | 0.00 | 0.90 | 0.00 | 98 | 1011.6 | |
| 20260507003017 | 59 | 0.0 | 0.0 | 0.00 | 0.90 | 0.00 | 99 | 1011.6 | |
| 20260507002017 | 59 | 0.0 | 0.0 | 0.00 | 0.90 | 0.00 | 98 | 1011.7 | |
| 20260507001017 | 59 | 0.0 | 0.0 | 0.00 | 0.90 | 0.00 | 98 | 1011.6 | |
| 20260507000017 | 59 | 0.0 | 0.0 | 0.00 | 0.90 | 0.00 | 98 | 1011.6 | |
| 20260506235017 | 59 | 0.0 | 0.0 | 0.00 | 0.90 | 0.00 | 98 | 1011.6 | |
| 20260506234017 | 59 | 0.0 | 1.0 | 0.00 | 0.90 | 0.00 | 98 | 1011.7 | |
| 20260506233017 | 58 | 0.0 | 0.0 | 0.00 | 0.90 | 0.00 | 98 | 1011.7 | |
| 20260506232057 | 58 | 0.0 | 0.0 | 0.00 | 0.90 | 0.00 | 98 | 1011.6 | |
| 20260506231017 | 58 | 0.0 | 1.0 | 0.00 | 0.90 | 0.00 | 98 | 1011.7 | |
| 20260506230017 | 58 | 0.0 | 1.0 | 0.00 | 0.90 | 0.00 | 98 | 1011.9 | |
| 20260506225017 | 58 | 0.0 | 1.0 | 0.00 | 0.90 | 0.00 | 98 | 1011.9 | |
| 20260506224017 | 58 | 0.0 | 1.0 | 0.00 | 0.90 | 0.00 | 98 | 1011.8 | |
| 20260506223017 | 58 | 0.0 | 0.0 | 0.00 | 0.90 | 0.00 | 98 | 1011.7 | |
| 20260506222017 | 58 | 0.0 | 0.0 | 0.00 | 0.90 | 0.00 | 98 | 1011.7 | |
| 20260506221057 | 59 | 0.0 | 0.0 | 0.00 | 0.90 | 0.00 | 98 | 1011.7 | |
| 20260506220017 | 59 | 0.0 | 1.0 | 0.00 | 0.90 | 0.90 | 98 | 1011.6 | |
| 20260506215016 | 59 | 0.0 | 0.0 | 0.00 | 0.90 | 0.90 | 98 | 1011.6 | |
| 20260506214016 | 59 | 0.0 | 0.0 | 0.00 | 0.90 | 0.90 | 98 | 1011.6 | |
| 20260506213016 | 59 | 0.0 | 0.0 | 0.00 | 0.90 | 0.90 | 98 | 1011.7 | |
| 20260506212016 | 59 | 0.0 | 0.0 | 0.00 | 0.90 | 0.90 | 98 | 1011.8 | |
| 20260506211016 | 59 | 0.0 | 0.0 | 0.00 | 0.90 | 0.90 | 98 | 1011.8 | |
| 20260506210016 | 59 | 0.0 | 1.0 | 0.00 | 0.90 | 0.90 | 98 | 1011.7 | |
| 20260506205016 | 59 | 0.0 | 1.0 | 0.00 | 0.90 | 0.90 | 98 | 1011.6 | |
| 20260506204016 | 59 | 0.0 | 0.0 | 0.00 | 0.90 | 0.90 | 98 | 1011.5 | |
| 20260506203016 | 59 | 0.0 | 0.0 | 0.00 | 0.90 | 0.90 | 98 | 1011.6 | |
| 20260506202016 | 59 | 0.0 | 0.0 | 0.00 | 0.90 | 0.90 | 98 | 1011.5 | |
| 20260506201016 | 59 | 0.0 | 0.0 | 0.00 | 0.90 | 0.90 | 98 | 1011.4 | |
| 20260506200016 | 59 | 0.0 | 0.0 | 0.00 | 0.90 | 0.90 | 98 | 1011.4 | |
| 20260506195016 | 59 | 0.0 | 0.0 | 0.12 | 0.90 | 0.90 | 98 | 1011.2 | |
| 20260506194016 | 59 | 0.0 | 0.0 | 0.17 | 0.91 | 0.90 | 98 | 1011.2 | |
| 20260506193056 | 59 | 0.0 | 0.0 | 0.18 | 0.91 | 0.90 | 98 | 1011.0 | |
| 20260506192019 | 60 | 0.0 | 0.0 | 0.20 | 0.92 | 0.90 | 97 | 1011.1 | |
| 20260506191016 | 60 | 0.0 | 0.0 | 0.21 | 0.92 | 0.90 | 97 | 1011.1 | |
| 20260506190016 | 60 | 0.0 | 1.0 | 0.21 | 0.93 | 0.90 | 97 | 1010.9 | |
| 20260506185016 | 60 | 0.0 | 1.0 | 0.09 | 0.83 | 0.78 | 97 | 1010.9 | |
| 20260506184016 | 60 | 0.0 | 0.0 | 0.05 | 0.78 | 0.73 | 97 | 1010.9 | |
| 20260506183016 | 61 | 0.0 | 0.0 | 0.03 | 0.76 | 0.72 | 97 | 1010.8 | |
| 20260506182016 | 61 | 0.0 | 0.0 | 0.01 | 0.74 | 0.69 | 97 | 1010.8 | |
| 20260506181016 | 61 | 0.0 | 0.0 | 0.00 | 0.73 | 0.69 | 97 | 1010.8 | |
| 20260506180016 | 61 | 0.0 | 0.0 | 0.00 | 0.73 | 0.69 | 97 | 1010.7 | |
| 20260506175016 | 61 | 0.0 | 0.0 | 0.00 | 0.73 | 0.69 | 97 | 1010.9 |